sensor_id;sensor_type;location;lat;lon;timestamp;P1;durP1;ratioP1;P2;durP2;ratioP2
57856;SDS011;43683;48.650;9.290;2023-08-07T00:01:44;3.97;;;1.50;;
57856;SDS011;43683;48.650;9.290;2023-08-07T00:04:09;2.45;;;1.42;;
57856;SDS011;43683;48.650;9.290;2023-08-07T00:06:35;1.58;;;1.10;;
57856;SDS011;43683;48.650;9.290;2023-08-07T00:09:00;1.92;;;1.10;;
57856;SDS011;43683;48.650;9.290;2023-08-07T00:11:26;4.47;;;1.30;;
57856;SDS011;43683;48.650;9.290;2023-08-07T00:13:53;1.02;;;1.00;;
57856;SDS011;43683;48.650;9.290;2023-08-07T00:16:19;4.28;;;1.20;;
57856;SDS011;43683;48.650;9.290;2023-08-07T00:18:44;2.67;;;1.27;;
57856;SDS011;43683;48.650;9.290;2023-08-07T00:21:10;3.05;;;1.10;;
57856;SDS011;43683;48.650;9.290;2023-08-07T00:23:35;2.63;;;1.52;;
57856;SDS011;43683;48.650;9.290;2023-08-07T00:26:01;3.83;;;1.40;;
57856;SDS011;43683;48.650;9.290;2023-08-07T00:28:26;1.33;;;1.23;;
57856;SDS011;43683;48.650;9.290;2023-08-07T00:30:53;3.50;;;1.30;;
57856;SDS011;43683;48.650;9.290;2023-08-07T00:33:18;1.52;;;1.00;;
57856;SDS011;43683;48.650;9.290;2023-08-07T00:35:44;4.43;;;1.48;;
57856;SDS011;43683;48.650;9.290;2023-08-07T00:38:09;1.88;;;1.13;;
57856;SDS011;43683;48.650;9.290;2023-08-07T00:40:35;2.45;;;1.55;;
57856;SDS011;43683;48.650;9.290;2023-08-07T00:43:02;2.03;;;1.45;;
57856;SDS011;43683;48.650;9.290;2023-08-07T00:45:28;2.03;;;1.17;;
57856;SDS011;43683;48.650;9.290;2023-08-07T00:47:53;3.88;;;1.35;;
57856;SDS011;43683;48.650;9.290;2023-08-07T00:50:19;3.13;;;1.13;;
57856;SDS011;43683;48.650;9.290;2023-08-07T00:52:44;2.78;;;1.33;;
57856;SDS011;43683;48.650;9.290;2023-08-07T00:55:10;3.40;;;1.30;;
57856;SDS011;43683;48.650;9.290;2023-08-07T00:57:36;2.42;;;1.40;;
57856;SDS011;43683;48.650;9.290;2023-08-07T01:00:02;1.80;;;1.30;;
57856;SDS011;43683;48.650;9.290;2023-08-07T01:02:27;2.75;;;1.83;;
57856;SDS011;43683;48.650;9.290;2023-08-07T01:04:53;2.88;;;1.20;;
57856;SDS011;43683;48.650;9.290;2023-08-07T01:07:19;1.60;;;1.17;;
57856;SDS011;43683;48.650;9.290;2023-08-07T01:09:44;3.33;;;1.58;;
57856;SDS011;43683;48.650;9.290;2023-08-07T01:12:15;2.78;;;1.27;;
57856;SDS011;43683;48.650;9.290;2023-08-07T01:14:51;2.15;;;1.20;;
57856;SDS011;43683;48.650;9.290;2023-08-07T01:19:52;3.20;;;1.55;;
57856;SDS011;43683;48.650;9.290;2023-08-07T01:22:18;3.38;;;1.40;;
57856;SDS011;43683;48.650;9.290;2023-08-07T01:24:48;1.42;;;1.30;;
57856;SDS011;43683;48.650;9.290;2023-08-07T01:35:23;2.45;;;1.50;;
57856;SDS011;43683;48.650;9.290;2023-08-07T01:37:54;2.15;;;1.38;;
57856;SDS011;43683;48.650;9.290;2023-08-07T01:42:48;2.10;;;1.38;;
57856;SDS011;43683;48.650;9.290;2023-08-07T01:45:14;3.38;;;1.52;;
57856;SDS011;43683;48.650;9.290;2023-08-07T01:47:46;2.33;;;1.38;;
57856;SDS011;43683;48.650;9.290;2023-08-07T01:50:12;1.70;;;1.45;;
57856;SDS011;43683;48.650;9.290;2023-08-07T01:52:37;4.43;;;1.48;;
57856;SDS011;43683;48.650;9.290;2023-08-07T01:55:03;1.95;;;1.50;;
57856;SDS011;43683;48.650;9.290;2023-08-07T01:57:28;1.50;;;1.40;;
57856;SDS011;43683;48.650;9.290;2023-08-07T01:59:55;6.07;;;1.75;;
57856;SDS011;43683;48.650;9.290;2023-08-07T02:02:21;1.30;;;1.20;;
57856;SDS011;43683;48.650;9.290;2023-08-07T02:04:46;2.78;;;1.60;;
57856;SDS011;43683;48.650;9.290;2023-08-07T02:07:12;3.33;;;1.45;;
57856;SDS011;43683;48.650;9.290;2023-08-07T02:09:37;2.60;;;1.58;;
57856;SDS011;43683;48.650;9.290;2023-08-07T02:12:03;3.67;;;1.73;;
57856;SDS011;43683;48.650;9.290;2023-08-07T02:14:29;2.72;;;1.70;;
57856;SDS011;43683;48.650;9.290;2023-08-07T02:16:54;4.72;;;1.77;;
57856;SDS011;43683;48.650;9.290;2023-08-07T02:19:20;2.70;;;1.50;;
57856;SDS011;43683;48.650;9.290;2023-08-07T02:21:46;1.60;;;1.30;;
57856;SDS011;43683;48.650;9.290;2023-08-07T02:24:12;3.22;;;2.05;;
57856;SDS011;43683;48.650;9.290;2023-08-07T02:26:38;2.65;;;1.60;;
57856;SDS011;43683;48.650;9.290;2023-08-07T02:29:04;2.63;;;1.60;;
57856;SDS011;43683;48.650;9.290;2023-08-07T02:31:31;1.70;;;1.20;;
57856;SDS011;43683;48.650;9.290;2023-08-07T02:33:57;2.50;;;1.50;;
57856;SDS011;43683;48.650;9.290;2023-08-07T02:36:22;2.72;;;1.70;;
57856;SDS011;43683;48.650;9.290;2023-08-07T02:38:48;3.25;;;1.83;;
57856;SDS011;43683;48.650;9.290;2023-08-07T02:41:13;2.40;;;1.60;;
57856;SDS011;43683;48.650;9.290;2023-08-07T02:43:39;3.47;;;1.70;;
57856;SDS011;43683;48.650;9.290;2023-08-07T02:46:04;2.60;;;1.42;;
57856;SDS011;43683;48.650;9.290;2023-08-07T02:48:30;3.25;;;1.40;;
57856;SDS011;43683;48.650;9.290;2023-08-07T02:50:55;2.42;;;1.73;;
57856;SDS011;43683;48.650;9.290;2023-08-07T02:53:21;2.85;;;1.30;;
57856;SDS011;43683;48.650;9.290;2023-08-07T02:55:46;1.33;;;1.23;;
57856;SDS011;43683;48.650;9.290;2023-08-07T02:58:12;3.28;;;1.58;;
57856;SDS011;43683;48.650;9.290;2023-08-07T03:00:37;3.22;;;1.40;;
57856;SDS011;43683;48.650;9.290;2023-08-07T03:03:03;3.05;;;1.42;;
57856;SDS011;43683;48.650;9.290;2023-08-07T03:05:28;3.22;;;1.60;;
57856;SDS011;43683;48.650;9.290;2023-08-07T03:07:54;4.03;;;1.70;;
57856;SDS011;43683;48.650;9.290;2023-08-07T03:10:20;2.83;;;1.42;;
57856;SDS011;43683;48.650;9.290;2023-08-07T03:12:45;3.10;;;1.23;;
57856;SDS011;43683;48.650;9.290;2023-08-07T03:15:11;2.92;;;1.40;;
57856;SDS011;43683;48.650;9.290;2023-08-07T03:17:37;5.47;;;1.70;;
57856;SDS011;43683;48.650;9.290;2023-08-07T03:20:02;2.15;;;1.48;;
57856;SDS011;43683;48.650;9.290;2023-08-07T03:22:29;3.22;;;1.42;;
57856;SDS011;43683;48.650;9.290;2023-08-07T03:24:54;2.97;;;1.35;;
57856;SDS011;43683;48.650;9.290;2023-08-07T03:27:20;2.72;;;1.58;;
57856;SDS011;43683;48.650;9.290;2023-08-07T03:29:46;3.72;;;1.50;;
57856;SDS011;43683;48.650;9.290;2023-08-07T03:32:11;2.75;;;1.35;;
57856;SDS011;43683;48.650;9.290;2023-08-07T03:34:37;2.13;;;1.20;;
57856;SDS011;43683;48.650;9.290;2023-08-07T03:37:02;3.38;;;1.63;;
57856;SDS011;43683;48.650;9.290;2023-08-07T03:39:28;3.40;;;1.60;;
57856;SDS011;43683;48.650;9.290;2023-08-07T03:41:54;2.88;;;1.30;;
57856;SDS011;43683;48.650;9.290;2023-08-07T03:44:19;2.80;;;1.38;;
57856;SDS011;43683;48.650;9.290;2023-08-07T03:46:45;3.15;;;1.55;;
57856;SDS011;43683;48.650;9.290;2023-08-07T03:49:10;2.78;;;1.95;;
57856;SDS011;43683;48.650;9.290;2023-08-07T03:51:36;4.85;;;1.73;;
57856;SDS011;43683;48.650;9.290;2023-08-07T03:54:01;3.35;;;1.30;;
57856;SDS011;43683;48.650;9.290;2023-08-07T03:56:27;3.25;;;1.50;;
57856;SDS011;43683;48.650;9.290;2023-08-07T03:58:52;2.33;;;1.45;;
57856;SDS011;43683;48.650;9.290;2023-08-07T04:01:18;1.67;;;1.48;;
57856;SDS011;43683;48.650;9.290;2023-08-07T04:03:44;2.47;;;1.55;;
57856;SDS011;43683;48.650;9.290;2023-08-07T04:11:06;4.28;;;1.42;;
57856;SDS011;43683;48.650;9.290;2023-08-07T04:13:32;4.88;;;1.70;;
57856;SDS011;43683;48.650;9.290;2023-08-07T04:15:58;2.60;;;1.52;;
57856;SDS011;43683;48.650;9.290;2023-08-07T04:18:25;2.97;;;1.60;;
57856;SDS011;43683;48.650;9.290;2023-08-07T04:20:52;5.10;;;1.80;;
57856;SDS011;43683;48.650;9.290;2023-08-07T04:23:18;3.10;;;1.77;;
57856;SDS011;43683;48.650;9.290;2023-08-07T04:25:44;3.25;;;1.55;;
57856;SDS011;43683;48.650;9.290;2023-08-07T04:28:11;1.70;;;1.40;;
57856;SDS011;43683;48.650;9.290;2023-08-07T04:30:37;3.20;;;1.75;;
57856;SDS011;43683;48.650;9.290;2023-08-07T04:33:02;5.22;;;1.70;;
57856;SDS011;43683;48.650;9.290;2023-08-07T04:35:28;3.15;;;1.60;;
57856;SDS011;43683;48.650;9.290;2023-08-07T04:37:53;5.35;;;1.75;;
57856;SDS011;43683;48.650;9.290;2023-08-07T04:40:19;6.28;;;1.75;;
57856;SDS011;43683;48.650;9.290;2023-08-07T04:42:44;2.88;;;1.77;;
57856;SDS011;43683;48.650;9.290;2023-08-07T04:45:10;3.80;;;1.90;;
57856;SDS011;43683;48.650;9.290;2023-08-07T04:47:35;2.72;;;1.50;;
57856;SDS011;43683;48.650;9.290;2023-08-07T04:50:01;6.03;;;1.50;;
57856;SDS011;43683;48.650;9.290;2023-08-07T04:52:27;2.47;;;1.50;;
57856;SDS011;43683;48.650;9.290;2023-08-07T04:54:53;4.00;;;2.00;;
57856;SDS011;43683;48.650;9.290;2023-08-07T04:57:18;5.15;;;2.63;;
57856;SDS011;43683;48.650;9.290;2023-08-07T04:59:44;2.20;;;1.60;;
57856;SDS011;43683;48.650;9.290;2023-08-07T05:02:09;3.28;;;1.88;;
57856;SDS011;43683;48.650;9.290;2023-08-07T05:04:35;5.07;;;1.70;;
57856;SDS011;43683;48.650;9.290;2023-08-07T05:07:00;2.35;;;1.73;;
57856;SDS011;43683;48.650;9.290;2023-08-07T05:09:26;5.47;;;1.60;;
57856;SDS011;43683;48.650;9.290;2023-08-07T05:11:51;3.72;;;1.60;;
57856;SDS011;43683;48.650;9.290;2023-08-07T05:14:17;2.10;;;1.60;;
57856;SDS011;43683;48.650;9.290;2023-08-07T05:16:42;3.80;;;1.60;;
57856;SDS011;43683;48.650;9.290;2023-08-07T05:19:08;2.85;;;1.70;;
57856;SDS011;43683;48.650;9.290;2023-08-07T05:21:33;3.72;;;1.52;;
57856;SDS011;43683;48.650;9.290;2023-08-07T05:23:59;2.42;;;1.63;;
57856;SDS011;43683;48.650;9.290;2023-08-07T05:26:24;2.55;;;1.33;;
57856;SDS011;43683;48.650;9.290;2023-08-07T05:28:50;3.63;;;1.60;;
57856;SDS011;43683;48.650;9.290;2023-08-07T05:31:16;2.78;;;1.48;;
57856;SDS011;43683;48.650;9.290;2023-08-07T05:33:41;2.97;;;1.85;;
57856;SDS011;43683;48.650;9.290;2023-08-07T05:36:07;3.28;;;1.60;;
57856;SDS011;43683;48.650;9.290;2023-08-07T05:38:32;3.90;;;1.70;;
57856;SDS011;43683;48.650;9.290;2023-08-07T05:40:58;2.53;;;1.45;;
57856;SDS011;43683;48.650;9.290;2023-08-07T05:43:23;2.55;;;1.42;;
57856;SDS011;43683;48.650;9.290;2023-08-07T05:45:49;3.13;;;1.77;;
57856;SDS011;43683;48.650;9.290;2023-08-07T05:48:15;4.47;;;1.70;;
57856;SDS011;43683;48.650;9.290;2023-08-07T05:50:41;2.35;;;1.50;;
57856;SDS011;43683;48.650;9.290;2023-08-07T05:53:07;4.03;;;1.60;;
57856;SDS011;43683;48.650;9.290;2023-08-07T05:55:33;3.08;;;1.30;;
57856;SDS011;43683;48.650;9.290;2023-08-07T05:57:59;3.50;;;1.73;;
57856;SDS011;43683;48.650;9.290;2023-08-07T06:00:25;4.45;;;1.50;;
57856;SDS011;43683;48.650;9.290;2023-08-07T06:02:50;4.30;;;2.00;;
57856;SDS011;43683;48.650;9.290;2023-08-07T06:05:16;2.80;;;1.80;;
57856;SDS011;43683;48.650;9.290;2023-08-07T06:07:41;5.80;;;1.60;;
57856;SDS011;43683;48.650;9.290;2023-08-07T06:10:07;5.00;;;1.35;;
57856;SDS011;43683;48.650;9.290;2023-08-07T06:12:33;3.90;;;1.77;;
57856;SDS011;43683;48.650;9.290;2023-08-07T06:14:58;4.40;;;1.70;;
57856;SDS011;43683;48.650;9.290;2023-08-07T06:17:24;3.40;;;1.67;;
57856;SDS011;43683;48.650;9.290;2023-08-07T06:19:50;2.90;;;1.40;;
57856;SDS011;43683;48.650;9.290;2023-08-07T06:22:15;2.50;;;1.50;;
57856;SDS011;43683;48.650;9.290;2023-08-07T06:24:41;2.97;;;1.67;;
57856;SDS011;43683;48.650;9.290;2023-08-07T06:27:06;4.10;;;1.45;;
57856;SDS011;43683;48.650;9.290;2023-08-07T06:29:32;3.05;;;1.52;;
57856;SDS011;43683;48.650;9.290;2023-08-07T06:31:57;2.10;;;1.42;;
57856;SDS011;43683;48.650;9.290;2023-08-07T06:34:23;6.95;;;1.90;;
57856;SDS011;43683;48.650;9.290;2023-08-07T06:36:49;2.42;;;1.55;;
57856;SDS011;43683;48.650;9.290;2023-08-07T06:39:15;2.50;;;1.67;;
57856;SDS011;43683;48.650;9.290;2023-08-07T06:41:40;8.45;;;2.03;;
57856;SDS011;43683;48.650;9.290;2023-08-07T06:44:06;2.65;;;1.30;;
57856;SDS011;43683;48.650;9.290;2023-08-07T06:46:31;2.22;;;1.50;;
57856;SDS011;43683;48.650;9.290;2023-08-07T06:48:57;1.50;;;1.38;;
57856;SDS011;43683;48.650;9.290;2023-08-07T06:51:23;4.07;;;1.60;;
57856;SDS011;43683;48.650;9.290;2023-08-07T06:53:48;2.00;;;1.73;;
57856;SDS011;43683;48.650;9.290;2023-08-07T06:56:14;2.15;;;1.30;;
57856;SDS011;43683;48.650;9.290;2023-08-07T06:58:39;2.08;;;1.40;;
57856;SDS011;43683;48.650;9.290;2023-08-07T07:01:05;3.20;;;1.55;;
57856;SDS011;43683;48.650;9.290;2023-08-07T07:03:31;4.05;;;1.92;;
57856;SDS011;43683;48.650;9.290;2023-08-07T07:05:56;2.03;;;1.60;;
57856;SDS011;43683;48.650;9.290;2023-08-07T07:08:22;1.80;;;1.25;;
57856;SDS011;43683;48.650;9.290;2023-08-07T07:10:54;3.72;;;1.40;;
57856;SDS011;43683;48.650;9.290;2023-08-07T07:13:29;2.10;;;1.48;;
57856;SDS011;43683;48.650;9.290;2023-08-07T07:15:55;2.78;;;1.77;;
57856;SDS011;43683;48.650;9.290;2023-08-07T07:18:21;5.28;;;2.00;;
57856;SDS011;43683;48.650;9.290;2023-08-07T07:20:47;5.50;;;2.13;;
57856;SDS011;43683;48.650;9.290;2023-08-07T07:23:12;4.65;;;1.60;;
57856;SDS011;43683;48.650;9.290;2023-08-07T07:25:38;2.72;;;1.50;;
57856;SDS011;43683;48.650;9.290;2023-08-07T07:28:03;2.97;;;1.38;;
57856;SDS011;43683;48.650;9.290;2023-08-07T07:30:29;4.80;;;1.83;;
57856;SDS011;43683;48.650;9.290;2023-08-07T07:32:54;12.23;;;2.17;;
57856;SDS011;43683;48.650;9.290;2023-08-07T07:35:20;7.20;;;2.10;;
57856;SDS011;43683;48.650;9.290;2023-08-07T07:37:45;3.80;;;1.70;;
57856;SDS011;43683;48.650;9.290;2023-08-07T07:40:11;2.15;;;1.15;;
57856;SDS011;43683;48.650;9.290;2023-08-07T07:42:37;3.92;;;1.35;;
57856;SDS011;43683;48.650;9.290;2023-08-07T07:45:03;5.38;;;1.55;;
57856;SDS011;43683;48.650;9.290;2023-08-07T07:47:29;2.63;;;1.23;;
57856;SDS011;43683;48.650;9.290;2023-08-07T07:50:03;3.22;;;1.35;;
57856;SDS011;43683;48.650;9.290;2023-08-07T07:52:33;1.65;;;1.20;;
57856;SDS011;43683;48.650;9.290;2023-08-07T07:54:59;5.13;;;1.30;;
57856;SDS011;43683;48.650;9.290;2023-08-07T07:57:25;3.30;;;1.48;;
57856;SDS011;43683;48.650;9.290;2023-08-07T07:59:51;2.63;;;1.40;;
57856;SDS011;43683;48.650;9.290;2023-08-07T08:02:16;2.47;;;1.10;;
57856;SDS011;43683;48.650;9.290;2023-08-07T08:04:42;3.10;;;1.20;;
57856;SDS011;43683;48.650;9.290;2023-08-07T08:07:08;2.60;;;1.33;;
57856;SDS011;43683;48.650;9.290;2023-08-07T08:09:34;2.40;;;1.58;;
57856;SDS011;43683;48.650;9.290;2023-08-07T08:11:59;3.03;;;1.23;;
57856;SDS011;43683;48.650;9.290;2023-08-07T08:14:25;1.60;;;1.20;;
57856;SDS011;43683;48.650;9.290;2023-08-07T08:16:51;1.80;;;1.10;;
57856;SDS011;43683;48.650;9.290;2023-08-07T08:19:16;1.40;;;1.00;;
57856;SDS011;43683;48.650;9.290;2023-08-07T08:21:42;2.47;;;1.20;;
57856;SDS011;43683;48.650;9.290;2023-08-07T08:24:08;2.97;;;1.30;;
57856;SDS011;43683;48.650;9.290;2023-08-07T08:26:34;3.00;;;1.42;;
57856;SDS011;43683;48.650;9.290;2023-08-07T08:29:00;4.00;;;1.40;;
57856;SDS011;43683;48.650;9.290;2023-08-07T08:31:26;2.08;;;1.20;;
57856;SDS011;43683;48.650;9.290;2023-08-07T08:33:55;2.28;;;1.33;;
57856;SDS011;43683;48.650;9.290;2023-08-07T08:36:25;3.22;;;1.15;;
57856;SDS011;43683;48.650;9.290;2023-08-07T08:38:51;0.77;;;0.77;;
57856;SDS011;43683;48.650;9.290;2023-08-07T08:41:19;2.72;;;1.10;;
57856;SDS011;43683;48.650;9.290;2023-08-07T08:43:46;1.25;;;0.80;;
57856;SDS011;43683;48.650;9.290;2023-08-07T08:46:14;1.73;;;0.93;;
57856;SDS011;43683;48.650;9.290;2023-08-07T08:48:41;1.75;;;0.98;;
57856;SDS011;43683;48.650;9.290;2023-08-07T08:51:12;0.85;;;0.85;;
57856;SDS011;43683;48.650;9.290;2023-08-07T08:53:38;1.33;;;1.00;;
57856;SDS011;43683;48.650;9.290;2023-08-07T08:56:04;1.70;;;1.10;;
57856;SDS011;43683;48.650;9.290;2023-08-07T08:58:31;1.52;;;1.10;;
57856;SDS011;43683;48.650;9.290;2023-08-07T09:00:57;1.58;;;0.70;;
57856;SDS011;43683;48.650;9.290;2023-08-07T09:03:26;2.58;;;1.10;;
57856;SDS011;43683;48.650;9.290;2023-08-07T09:05:52;1.45;;;0.90;;
57856;SDS011;43683;48.650;9.290;2023-08-07T09:08:19;1.70;;;0.80;;
57856;SDS011;43683;48.650;9.290;2023-08-07T09:10:46;1.50;;;1.10;;
57856;SDS011;43683;48.650;9.290;2023-08-07T09:13:14;1.23;;;0.93;;
57856;SDS011;43683;48.650;9.290;2023-08-07T09:15:42;1.77;;;0.90;;
57856;SDS011;43683;48.650;9.290;2023-08-07T09:18:12;3.90;;;0.88;;
57856;SDS011;43683;48.650;9.290;2023-08-07T09:20:38;2.70;;;1.00;;
57856;SDS011;43683;48.650;9.290;2023-08-07T09:23:04;3.83;;;1.02;;
57856;SDS011;43683;48.650;9.290;2023-08-07T09:25:30;1.58;;;1.00;;
57856;SDS011;43683;48.650;9.290;2023-08-07T09:27:56;4.18;;;1.42;;
57856;SDS011;43683;48.650;9.290;2023-08-07T09:30:26;1.25;;;0.70;;
57856;SDS011;43683;48.650;9.290;2023-08-07T09:32:56;1.42;;;0.63;;
57856;SDS011;43683;48.650;9.290;2023-08-07T09:35:23;4.72;;;1.30;;
57856;SDS011;43683;48.650;9.290;2023-08-07T09:37:49;1.20;;;0.75;;
57856;SDS011;43683;48.650;9.290;2023-08-07T09:40:15;1.05;;;0.77;;
57856;SDS011;43683;48.650;9.290;2023-08-07T09:42:41;1.10;;;0.90;;
57856;SDS011;43683;48.650;9.290;2023-08-07T09:45:20;1.13;;;0.60;;
57856;SDS011;43683;48.650;9.290;2023-08-07T09:47:57;1.05;;;0.57;;
57856;SDS011;43683;48.650;9.290;2023-08-07T09:50:27;1.33;;;0.82;;
57856;SDS011;43683;48.650;9.290;2023-08-07T09:52:53;1.73;;;0.80;;
57856;SDS011;43683;48.650;9.290;2023-08-07T09:55:20;1.67;;;0.73;;
57856;SDS011;43683;48.650;9.290;2023-08-07T09:57:46;1.20;;;0.80;;
57856;SDS011;43683;48.650;9.290;2023-08-07T10:00:13;1.30;;;0.90;;
57856;SDS011;43683;48.650;9.290;2023-08-07T10:02:44;2.95;;;0.90;;
57856;SDS011;43683;48.650;9.290;2023-08-07T10:05:10;1.65;;;0.82;;
57856;SDS011;43683;48.650;9.290;2023-08-07T10:07:37;2.83;;;1.08;;
57856;SDS011;43683;48.650;9.290;2023-08-07T10:10:03;1.88;;;0.90;;
57856;SDS011;43683;48.650;9.290;2023-08-07T10:12:29;1.20;;;0.80;;
57856;SDS011;43683;48.650;9.290;2023-08-07T10:17:23;1.85;;;1.20;;
57856;SDS011;43683;48.650;9.290;2023-08-07T10:19:50;1.58;;;0.80;;
57856;SDS011;43683;48.650;9.290;2023-08-07T10:22:17;1.73;;;0.80;;
57856;SDS011;43683;48.650;9.290;2023-08-07T10:24:44;2.95;;;1.00;;
57856;SDS011;43683;48.650;9.290;2023-08-07T10:27:12;1.98;;;0.80;;
57856;SDS011;43683;48.650;9.290;2023-08-07T10:29:43;2.65;;;1.00;;
57856;SDS011;43683;48.650;9.290;2023-08-07T10:32:11;1.15;;;0.88;;
57856;SDS011;43683;48.650;9.290;2023-08-07T10:34:40;1.88;;;1.00;;
57856;SDS011;43683;48.650;9.290;2023-08-07T10:37:07;1.00;;;0.90;;
57856;SDS011;43683;48.650;9.290;2023-08-07T10:39:33;1.25;;;0.90;;
57856;SDS011;43683;48.650;9.290;2023-08-07T10:41:59;1.33;;;0.95;;
57856;SDS011;43683;48.650;9.290;2023-08-07T10:44:26;1.57;;;0.80;;
57856;SDS011;43683;48.650;9.290;2023-08-07T10:46:56;1.38;;;0.95;;
57856;SDS011;43683;48.650;9.290;2023-08-07T10:52:11;1.35;;;1.00;;
57856;SDS011;43683;48.650;9.290;2023-08-07T10:54:40;2.05;;;1.00;;
57856;SDS011;43683;48.650;9.290;2023-08-07T10:57:10;1.70;;;1.00;;
57856;SDS011;43683;48.650;9.290;2023-08-07T10:59:37;1.27;;;0.95;;
57856;SDS011;43683;48.650;9.290;2023-08-07T11:02:03;0.98;;;0.82;;
57856;SDS011;43683;48.650;9.290;2023-08-07T11:04:36;2.72;;;1.00;;
57856;SDS011;43683;48.650;9.290;2023-08-07T11:07:02;1.30;;;0.80;;
57856;SDS011;43683;48.650;9.290;2023-08-07T11:09:28;1.98;;;1.15;;
57856;SDS011;43683;48.650;9.290;2023-08-07T11:11:53;1.55;;;0.93;;
57856;SDS011;43683;48.650;9.290;2023-08-07T11:14:19;1.23;;;0.70;;
57856;SDS011;43683;48.650;9.290;2023-08-07T11:16:45;2.55;;;1.10;;
57856;SDS011;43683;48.650;9.290;2023-08-07T11:19:13;3.85;;;1.38;;
57856;SDS011;43683;48.650;9.290;2023-08-07T11:21:40;2.65;;;1.20;;
57856;SDS011;43683;48.650;9.290;2023-08-07T11:24:07;3.60;;;1.27;;
57856;SDS011;43683;48.650;9.290;2023-08-07T11:26:33;1.80;;;0.80;;
57856;SDS011;43683;48.650;9.290;2023-08-07T11:28:58;2.03;;;0.95;;
57856;SDS011;43683;48.650;9.290;2023-08-07T11:31:24;1.80;;;1.20;;
57856;SDS011;43683;48.650;9.290;2023-08-07T11:33:50;1.88;;;1.10;;
57856;SDS011;43683;48.650;9.290;2023-08-07T11:36:17;2.35;;;1.23;;
57856;SDS011;43683;48.650;9.290;2023-08-07T11:38:43;1.23;;;0.90;;
57856;SDS011;43683;48.650;9.290;2023-08-07T11:41:10;1.33;;;1.17;;
57856;SDS011;43683;48.650;9.290;2023-08-07T11:43:37;3.90;;;1.20;;
57856;SDS011;43683;48.650;9.290;2023-08-07T11:46:04;2.28;;;1.20;;
57856;SDS011;43683;48.650;9.290;2023-08-07T11:48:31;2.13;;;0.90;;
57856;SDS011;43683;48.650;9.290;2023-08-07T11:50:58;3.72;;;1.10;;
57856;SDS011;43683;48.650;9.290;2023-08-07T11:58:21;3.13;;;1.30;;
57856;SDS011;43683;48.650;9.290;2023-08-07T12:00:47;2.65;;;1.27;;
57856;SDS011;43683;48.650;9.290;2023-08-07T12:03:55;1.55;;;1.10;;
57856;SDS011;43683;48.650;9.290;2023-08-07T12:06:04;2.75;;;1.10;;
57856;SDS011;43683;48.650;9.290;2023-08-07T12:08:31;1.80;;;1.10;;
57856;SDS011;43683;48.650;9.290;2023-08-07T12:11:07;2.17;;;1.40;;
57856;SDS011;43683;48.650;9.290;2023-08-07T12:13:37;2.22;;;1.35;;
57856;SDS011;43683;48.650;9.290;2023-08-07T12:16:07;5.53;;;1.48;;
57856;SDS011;43683;48.650;9.290;2023-08-07T12:18:34;1.77;;;1.27;;
57856;SDS011;43683;48.650;9.290;2023-08-07T12:21:01;1.92;;;1.20;;
57856;SDS011;43683;48.650;9.290;2023-08-07T12:23:34;1.33;;;1.23;;
57856;SDS011;43683;48.650;9.290;2023-08-07T12:26:01;2.47;;;1.13;;
57856;SDS011;43683;48.650;9.290;2023-08-07T12:28:27;2.30;;;1.40;;
57856;SDS011;43683;48.650;9.290;2023-08-07T12:30:53;3.08;;;1.40;;
57856;SDS011;43683;48.650;9.290;2023-08-07T12:33:18;2.28;;;1.55;;
57856;SDS011;43683;48.650;9.290;2023-08-07T12:35:44;2.25;;;1.35;;
57856;SDS011;43683;48.650;9.290;2023-08-07T12:38:10;4.20;;;1.42;;
57856;SDS011;43683;48.650;9.290;2023-08-07T12:40:38;1.83;;;1.33;;
57856;SDS011;43683;48.650;9.290;2023-08-07T12:43:04;3.35;;;1.63;;
57856;SDS011;43683;48.650;9.290;2023-08-07T12:45:30;3.25;;;1.50;;
57856;SDS011;43683;48.650;9.290;2023-08-07T12:47:56;2.00;;;1.45;;
57856;SDS011;43683;48.650;9.290;2023-08-07T12:50:23;2.92;;;1.50;;
57856;SDS011;43683;48.650;9.290;2023-08-07T12:52:48;2.47;;;1.40;;
57856;SDS011;43683;48.650;9.290;2023-08-07T12:55:14;1.60;;;1.40;;
57856;SDS011;43683;48.650;9.290;2023-08-07T12:57:41;2.63;;;1.60;;
57856;SDS011;43683;48.650;9.290;2023-08-07T13:00:07;1.45;;;1.30;;
57856;SDS011;43683;48.650;9.290;2023-08-07T13:02:37;3.00;;;1.50;;
57856;SDS011;43683;48.650;9.290;2023-08-07T13:05:12;2.95;;;1.67;;
57856;SDS011;43683;48.650;9.290;2023-08-07T13:07:39;2.22;;;1.48;;
57856;SDS011;43683;48.650;9.290;2023-08-07T13:10:06;2.58;;;1.60;;
57856;SDS011;43683;48.650;9.290;2023-08-07T13:12:34;4.63;;;1.80;;
57856;SDS011;43683;48.650;9.290;2023-08-07T13:15:01;2.72;;;1.60;;
57856;SDS011;43683;48.650;9.290;2023-08-07T13:17:27;2.78;;;1.38;;
57856;SDS011;43683;48.650;9.290;2023-08-07T13:19:53;2.83;;;1.40;;
57856;SDS011;43683;48.650;9.290;2023-08-07T13:22:18;2.70;;;1.40;;
57856;SDS011;43683;48.650;9.290;2023-08-07T13:24:44;1.67;;;1.20;;
57856;SDS011;43683;48.650;9.290;2023-08-07T13:27:09;4.18;;;2.08;;
57856;SDS011;43683;48.650;9.290;2023-08-07T13:29:35;3.17;;;1.50;;
57856;SDS011;43683;48.650;9.290;2023-08-07T13:32:01;3.53;;;1.60;;
57856;SDS011;43683;48.650;9.290;2023-08-07T13:34:29;2.40;;;1.40;;
57856;SDS011;43683;48.650;9.290;2023-08-07T13:36:55;2.47;;;1.30;;
57856;SDS011;43683;48.650;9.290;2023-08-07T13:39:20;3.83;;;2.03;;
57856;SDS011;43683;48.650;9.290;2023-08-07T13:41:46;2.40;;;1.40;;
57856;SDS011;43683;48.650;9.290;2023-08-07T13:44:12;2.13;;;1.00;;
57856;SDS011;43683;48.650;9.290;2023-08-07T13:46:37;2.35;;;1.08;;
57856;SDS011;43683;48.650;9.290;2023-08-07T13:49:03;1.35;;;1.13;;
57856;SDS011;43683;48.650;9.290;2023-08-07T13:51:29;2.63;;;1.23;;
57856;SDS011;43683;48.650;9.290;2023-08-07T13:53:54;3.17;;;1.20;;
57856;SDS011;43683;48.650;9.290;2023-08-07T13:56:20;2.67;;;1.70;;
57856;SDS011;43683;48.650;9.290;2023-08-07T13:58:46;2.35;;;1.20;;
57856;SDS011;43683;48.650;9.290;2023-08-07T14:01:11;2.30;;;1.40;;
57856;SDS011;43683;48.650;9.290;2023-08-07T14:03:37;2.50;;;1.35;;
57856;SDS011;43683;48.650;9.290;2023-08-07T14:06:02;2.38;;;1.15;;
57856;SDS011;43683;48.650;9.290;2023-08-07T14:08:28;2.63;;;1.10;;
57856;SDS011;43683;48.650;9.290;2023-08-07T14:10:53;2.10;;;1.20;;
57856;SDS011;43683;48.650;9.290;2023-08-07T14:13:19;2.80;;;1.15;;
57856;SDS011;43683;48.650;9.290;2023-08-07T14:15:45;1.38;;;0.93;;
57856;SDS011;43683;48.650;9.290;2023-08-07T14:18:11;2.55;;;1.25;;
57856;SDS011;43683;48.650;9.290;2023-08-07T14:20:39;2.00;;;1.20;;
57856;SDS011;43683;48.650;9.290;2023-08-07T14:23:05;2.22;;;1.17;;
57856;SDS011;43683;48.650;9.290;2023-08-07T14:25:30;3.50;;;1.80;;
57856;SDS011;43683;48.650;9.290;2023-08-07T14:27:56;2.65;;;1.30;;
57856;SDS011;43683;48.650;9.290;2023-08-07T14:30:22;2.30;;;1.05;;
57856;SDS011;43683;48.650;9.290;2023-08-07T14:32:47;1.92;;;1.15;;
57856;SDS011;43683;48.650;9.290;2023-08-07T14:35:14;2.90;;;1.10;;
57856;SDS011;43683;48.650;9.290;2023-08-07T14:37:39;2.63;;;1.30;;
57856;SDS011;43683;48.650;9.290;2023-08-07T14:40:05;2.03;;;1.00;;
57856;SDS011;43683;48.650;9.290;2023-08-07T14:42:32;2.07;;;1.00;;
57856;SDS011;43683;48.650;9.290;2023-08-07T14:44:57;2.20;;;0.90;;
57856;SDS011;43683;48.650;9.290;2023-08-07T14:47:23;2.28;;;1.05;;
57856;SDS011;43683;48.650;9.290;2023-08-07T14:49:49;2.40;;;0.90;;
57856;SDS011;43683;48.650;9.290;2023-08-07T14:52:15;2.35;;;1.05;;
57856;SDS011;43683;48.650;9.290;2023-08-07T14:54:40;1.95;;;0.73;;
57856;SDS011;43683;48.650;9.290;2023-08-07T14:57:06;1.38;;;0.90;;
57856;SDS011;43683;48.650;9.290;2023-08-07T14:59:31;1.83;;;0.93;;
57856;SDS011;43683;48.650;9.290;2023-08-07T15:01:57;1.30;;;0.90;;
57856;SDS011;43683;48.650;9.290;2023-08-07T15:04:23;1.45;;;1.10;;
57856;SDS011;43683;48.650;9.290;2023-08-07T15:06:48;2.20;;;1.02;;
57856;SDS011;43683;48.650;9.290;2023-08-07T15:09:15;2.13;;;1.50;;
57856;SDS011;43683;48.650;9.290;2023-08-07T15:11:42;1.23;;;1.00;;